Ora Direzione Vento Velocita' Vento Media Vento Raffica Max. Temperatura Wind Chill Pioggia Pressione
23:48:19.024 °(NNE)2.5 Kts3.5 Kts13.0 Kts26.0 °C26.0 °C0.0 mm1015.0 Hpa
23:28:06.021 °(NNE)2.5 Kts2.5 Kts13.0 Kts26.1 °C26.1 °C0.0 mm1015.0 Hpa
23:07:50.017 °(NNE)1.7 Kts2.5 Kts13.0 Kts26.4 °C26.4 °C0.0 mm1015.1 Hpa
22:47:18.029 °(NNE)1.7 Kts0.8 Kts13.0 Kts26.9 °C26.9 °C0.0 mm1015.1 Hpa
22:26:57.0293 °(WNW)0.8 Kts0.0 Kts13.0 Kts27.2 °C27.2 °C0.0 mm1015.3 Hpa
22:08:17.0281 °(W)2.5 Kts3.5 Kts13.0 Kts27.0 °C27.0 °C0.0 mm1015.1 Hpa
21:47:54.0254 °(WSW)4.3 Kts4.3 Kts13.0 Kts27.2 °C27.2 °C0.0 mm1014.5 Hpa
21:27:33.0254 °(WSW)4.3 Kts4.3 Kts13.0 Kts27.2 °C27.2 °C0.0 mm1014.5 Hpa
21:06:58.0254 °(WSW)4.3 Kts4.3 Kts13.0 Kts27.2 °C27.2 °C0.0 mm1014.5 Hpa
20:46:33.0255 °(WSW)4.3 Kts6.0 Kts13.0 Kts27.2 °C27.2 °C0.0 mm1014.3 Hpa
20:28:02.0247 °(WSW)7.8 Kts7.0 Kts13.0 Kts27.3 °C27.3 °C0.0 mm1014.2 Hpa
20:07:37.0243 °(WSW)7.8 Kts7.8 Kts13.0 Kts27.5 °C27.5 °C0.0 mm1014.1 Hpa
19:47:07.0236 °(SW)6.0 Kts7.0 Kts13.0 Kts27.7 °C27.7 °C0.0 mm1014.3 Hpa
19:26:52.0241 °(WSW)8.7 Kts7.8 Kts13.0 Kts27.8 °C27.8 °C0.0 mm1014.2 Hpa
19:06:39.0244 °(WSW)7.8 Kts8.7 Kts13.0 Kts28.1 °C28.1 °C0.0 mm1014.1 Hpa
18:48:06.0246 °(WSW)7.8 Kts7.8 Kts13.0 Kts27.9 °C27.9 °C0.0 mm1014.1 Hpa
18:27:57.0240 °(WSW)9.5 Kts7.0 Kts13.0 Kts28.1 °C28.1 °C0.0 mm1014.1 Hpa
18:07:35.0240 °(WSW)7.0 Kts5.2 Kts13.0 Kts28.4 °C28.4 °C0.0 mm1014.0 Hpa
17:47:16.0227 °(SW)5.2 Kts7.0 Kts13.0 Kts28.4 °C28.4 °C0.0 mm1014.0 Hpa
17:27:10.0226 °(SW)6.0 Kts7.0 Kts13.0 Kts28.2 °C28.2 °C0.0 mm1014.2 Hpa